createdAt,value
2024-01-25T00:03:08.029Z,5.63
2024-01-25T00:13:10.000Z,4.35
2024-01-25T00:23:14.971Z,7.15
2024-01-25T00:33:16.746Z,6.72
2024-01-25T00:43:19.006Z,9.20
2024-01-25T00:53:20.980Z,5.32
2024-01-25T01:03:23.126Z,8.45
2024-01-25T01:13:25.124Z,6.65
2024-01-25T01:23:26.896Z,6.53
2024-01-25T01:33:28.914Z,8.85
2024-01-25T01:43:30.950Z,8.05
2024-01-25T01:53:33.994Z,7.15
2024-01-25T02:03:35.900Z,7.10
2024-01-25T02:13:37.703Z,7.22
2024-01-25T02:23:39.419Z,7.32
2024-01-25T02:33:41.239Z,8.77
2024-01-25T02:43:44.031Z,5.82
2024-01-25T02:53:45.725Z,7.13
2024-01-25T03:03:47.559Z,6.63
2024-01-25T03:13:49.295Z,6.28
2024-01-25T03:23:52.514Z,5.45
2024-01-25T03:33:54.741Z,6.32
2024-01-25T03:43:56.622Z,6.82
2024-01-25T03:53:59.310Z,6.45
2024-01-25T04:04:01.415Z,5.80
2024-01-25T04:14:03.304Z,7.90
2024-01-25T04:24:05.297Z,7.20
2024-01-25T04:34:07.133Z,6.03
2024-01-25T04:44:08.996Z,5.18
2024-01-25T04:54:13.817Z,7.22
2024-01-25T05:04:17.414Z,6.50
2024-01-25T05:14:19.318Z,5.30
2024-01-25T05:24:21.064Z,5.43
2024-01-25T05:34:23.157Z,6.78
2024-01-25T05:44:25.062Z,4.32
2024-01-25T05:54:26.761Z,4.43
2024-01-25T06:04:28.628Z,6.68
2024-01-25T06:14:30.641Z,6.28
2024-01-25T06:24:32.472Z,9.65
2024-01-25T06:34:34.373Z,8.43
2024-01-25T06:44:36.254Z,6.15
2024-01-25T06:54:38.329Z,7.13
2024-01-25T07:04:41.999Z,8.30
2024-01-25T07:14:44.438Z,4.87
2024-01-25T07:24:46.438Z,6.05
2024-01-25T07:34:48.329Z,6.47
2024-01-25T07:44:50.083Z,4.97
2024-01-25T07:54:54.353Z,7.10
2024-01-25T08:04:58.655Z,6.07
2024-01-25T08:15:00.486Z,6.10
2024-01-25T08:25:02.329Z,6.30
2024-01-25T08:35:04.698Z,5.43
2024-01-25T08:45:10.071Z,7.30
2024-01-25T08:55:11.924Z,6.30
2024-01-25T09:05:13.833Z,5.72
2024-01-25T09:15:19.460Z,7.15
2024-01-25T09:25:21.365Z,5.32
2024-01-25T09:35:23.308Z,4.47
2024-01-25T09:45:25.358Z,5.93
2024-01-25T09:55:28.098Z,6.63
2024-01-25T10:05:30.120Z,4.65
2024-01-25T10:15:32.008Z,6.35
2024-01-25T10:25:37.769Z,6.32
2024-01-25T10:35:42.539Z,6.22
2024-01-25T10:45:44.798Z,5.83
2024-01-25T10:55:47.214Z,5.78
2024-01-25T11:05:50.010Z,6.40
2024-01-25T11:15:51.862Z,6.97
2024-01-25T11:25:55.892Z,6.93
2024-01-25T11:35:57.621Z,7.20
2024-01-25T11:45:59.544Z,7.78
2024-01-25T11:56:01.703Z,7.18
2024-01-25T12:06:05.956Z,6.03
2024-01-25T12:16:08.774Z,6.47
2024-01-25T12:26:15.217Z,6.68
2024-01-25T12:36:17.189Z,7.15
2024-01-25T12:46:26.451Z,7.75
2024-01-25T12:56:29.994Z,5.28
2024-01-25T13:06:31.857Z,7.50
2024-01-25T13:16:33.613Z,5.20
2024-01-25T13:26:37.027Z,6.15
2024-01-25T13:36:38.816Z,6.35
2024-01-25T13:46:40.549Z,6.20
2024-01-25T13:56:42.289Z,5.55
2024-01-25T14:06:44.099Z,6.70
2024-01-25T14:16:46.199Z,6.22
2024-01-25T14:26:48.441Z,3.67
2024-01-25T14:36:52.195Z,4.60
2024-01-25T14:46:54.048Z,5.40
2024-01-25T14:56:55.884Z,5.80
2024-01-25T15:06:58.798Z,5.60
2024-01-25T15:17:02.719Z,5.05
2024-01-25T15:27:06.905Z,6.03
2024-01-25T15:37:08.698Z,5.80
2024-01-25T15:47:10.524Z,5.60
2024-01-25T15:57:12.364Z,8.25
2024-01-25T16:07:14.108Z,9.68
2024-01-25T16:17:16.401Z,10.95
2024-01-25T16:27:18.238Z,7.88
2024-01-25T16:37:20.033Z,7.35
2024-01-25T16:47:21.779Z,8.25
2024-01-25T16:57:23.550Z,9.07
2024-01-25T17:07:26.094Z,9.15
2024-01-25T17:17:28.026Z,7.85
2024-01-25T17:27:29.920Z,8.82
2024-01-25T17:37:31.713Z,7.28
2024-01-25T17:47:33.673Z,6.68
2024-01-25T17:57:35.909Z,6.15
2024-01-25T18:07:37.756Z,8.82
2024-01-25T18:17:39.560Z,6.22
2024-01-25T18:27:43.221Z,7.40
2024-01-25T18:37:45.400Z,8.23
2024-01-25T18:47:48.983Z,7.30
2024-01-25T18:57:51.085Z,6.70
2024-01-25T19:07:55.264Z,7.35
2024-01-25T19:17:57.021Z,6.77
2024-01-25T19:27:58.945Z,7.07
2024-01-25T19:38:00.796Z,6.65
2024-01-25T19:48:02.901Z,5.65
2024-01-25T19:58:04.960Z,5.43
2024-01-25T20:08:07.365Z,8.93
2024-01-25T20:18:09.182Z,8.25
2024-01-25T20:28:11.053Z,8.98
2024-01-25T20:38:12.871Z,6.25
2024-01-25T20:48:14.785Z,7.47
2024-01-25T20:58:16.573Z,5.85
2024-01-25T21:08:18.557Z,5.38
2024-01-25T21:18:20.405Z,4.38
2024-01-25T21:28:22.262Z,5.10
2024-01-25T21:38:24.978Z,4.50
2024-01-25T21:48:26.872Z,4.25
2024-01-25T21:58:28.765Z,4.55
2024-01-25T22:08:30.645Z,3.15
2024-01-25T22:18:32.479Z,2.67
2024-01-25T22:28:34.334Z,3.60
2024-01-25T22:38:36.036Z,2.90
2024-01-25T22:48:37.940Z,4.05
2024-01-25T22:58:39.835Z,2.70
2024-01-25T23:08:41.560Z,3.00
2024-01-25T23:18:43.403Z,3.47
2024-01-25T23:28:45.201Z,2.33
2024-01-25T23:38:47.947Z,2.55
2024-01-25T23:48:49.864Z,2.45
2024-01-25T23:58:51.922Z,2.08
